sensor_id;sensor_type;location;lat;lon;timestamp;P1;durP1;ratioP1;P2;durP2;ratioP2
21170;SDS011;10743;52.160;20.910;2023-03-16T00:02:10;250.90;;;76.77;;
21170;SDS011;10743;52.160;20.910;2023-03-16T00:04:38;242.90;;;73.40;;
21170;SDS011;10743;52.160;20.910;2023-03-16T00:07:06;241.10;;;71.33;;
21170;SDS011;10743;52.160;20.910;2023-03-16T00:09:36;202.27;;;64.33;;
21170;SDS011;10743;52.160;20.910;2023-03-16T00:12:07;195.87;;;62.87;;
21170;SDS011;10743;52.160;20.910;2023-03-16T00:14:42;191.67;;;60.53;;
21170;SDS011;10743;52.160;20.910;2023-03-16T00:17:11;186.80;;;59.80;;
21170;SDS011;10743;52.160;20.910;2023-03-16T00:22:20;183.70;;;58.67;;
21170;SDS011;10743;52.160;20.910;2023-03-16T00:24:50;185.70;;;59.20;;
21170;SDS011;10743;52.160;20.910;2023-03-16T00:27:18;188.33;;;58.40;;
21170;SDS011;10743;52.160;20.910;2023-03-16T00:29:49;177.47;;;57.97;;
21170;SDS011;10743;52.160;20.910;2023-03-16T00:32:22;172.57;;;57.50;;
21170;SDS011;10743;52.160;20.910;2023-03-16T00:34:55;170.33;;;56.23;;
21170;SDS011;10743;52.160;20.910;2023-03-16T00:37:24;175.43;;;55.03;;
21170;SDS011;10743;52.160;20.910;2023-03-16T00:39:52;176.87;;;55.73;;
21170;SDS011;10743;52.160;20.910;2023-03-16T00:42:22;166.60;;;55.47;;
21170;SDS011;10743;52.160;20.910;2023-03-16T00:44:53;172.30;;;56.30;;
21170;SDS011;10743;52.160;20.910;2023-03-16T00:47:24;159.87;;;54.07;;
21170;SDS011;10743;52.160;20.910;2023-03-16T00:49:54;171.33;;;57.53;;
21170;SDS011;10743;52.160;20.910;2023-03-16T00:52:21;174.87;;;59.47;;
21170;SDS011;10743;52.160;20.910;2023-03-16T00:54:49;189.70;;;60.10;;
21170;SDS011;10743;52.160;20.910;2023-03-16T00:57:19;169.47;;;58.47;;
21170;SDS011;10743;52.160;20.910;2023-03-16T00:59:50;180.00;;;60.00;;
21170;SDS011;10743;52.160;20.910;2023-03-16T01:02:17;181.03;;;61.07;;
21170;SDS011;10743;52.160;20.910;2023-03-16T01:04:49;182.13;;;60.67;;
21170;SDS011;10743;52.160;20.910;2023-03-16T01:07:17;192.43;;;62.90;;
21170;SDS011;10743;52.160;20.910;2023-03-16T01:09:45;196.77;;;65.23;;
21170;SDS011;10743;52.160;20.910;2023-03-16T01:12:14;191.67;;;62.03;;
21170;SDS011;10743;52.160;20.910;2023-03-16T01:14:43;197.37;;;65.47;;
21170;SDS011;10743;52.160;20.910;2023-03-16T01:17:11;187.37;;;62.23;;
21170;SDS011;10743;52.160;20.910;2023-03-16T01:19:41;190.77;;;62.80;;
21170;SDS011;10743;52.160;20.910;2023-03-16T01:22:08;183.90;;;60.10;;
21170;SDS011;10743;52.160;20.910;2023-03-16T01:24:37;169.83;;;56.90;;
21170;SDS011;10743;52.160;20.910;2023-03-16T01:27:06;165.47;;;55.77;;
21170;SDS011;10743;52.160;20.910;2023-03-16T01:29:33;172.33;;;54.97;;
21170;SDS011;10743;52.160;20.910;2023-03-16T01:32:02;168.07;;;54.93;;
21170;SDS011;10743;52.160;20.910;2023-03-16T01:34:30;169.73;;;55.43;;
21170;SDS011;10743;52.160;20.910;2023-03-16T01:36:58;167.63;;;55.10;;
21170;SDS011;10743;52.160;20.910;2023-03-16T01:39:47;173.00;;;57.00;;
21170;SDS011;10743;52.160;20.910;2023-03-16T01:42:15;172.67;;;59.03;;
21170;SDS011;10743;52.160;20.910;2023-03-16T01:48:13;164.50;;;55.33;;
21170;SDS011;10743;52.160;20.910;2023-03-16T01:50:41;160.07;;;55.37;;
21170;SDS011;10743;52.160;20.910;2023-03-16T01:53:08;161.83;;;55.37;;
21170;SDS011;10743;52.160;20.910;2023-03-16T01:55:36;167.13;;;54.60;;
21170;SDS011;10743;52.160;20.910;2023-03-16T01:58:04;171.73;;;55.00;;
21170;SDS011;10743;52.160;20.910;2023-03-16T02:00:31;159.50;;;53.73;;
21170;SDS011;10743;52.160;20.910;2023-03-16T02:03:06;158.00;;;54.93;;
21170;SDS011;10743;52.160;20.910;2023-03-16T02:05:54;163.17;;;54.20;;
21170;SDS011;10743;52.160;20.910;2023-03-16T02:08:42;163.60;;;55.13;;
21170;SDS011;10743;52.160;20.910;2023-03-16T02:11:10;163.77;;;55.10;;
21170;SDS011;10743;52.160;20.910;2023-03-16T02:13:44;168.03;;;56.13;;
21170;SDS011;10743;52.160;20.910;2023-03-16T02:16:13;167.03;;;55.87;;
21170;SDS011;10743;52.160;20.910;2023-03-16T02:18:46;164.23;;;56.27;;
21170;SDS011;10743;52.160;20.910;2023-03-16T02:24:28;176.90;;;56.17;;
21170;SDS011;10743;52.160;20.910;2023-03-16T02:27:00;156.23;;;54.30;;
21170;SDS011;10743;52.160;20.910;2023-03-16T02:32:40;159.87;;;53.97;;
21170;SDS011;10743;52.160;20.910;2023-03-16T02:35:09;152.80;;;53.13;;
21170;SDS011;10743;52.160;20.910;2023-03-16T02:37:36;162.50;;;54.63;;
21170;SDS011;10743;52.160;20.910;2023-03-16T02:43:15;161.43;;;54.23;;
21170;SDS011;10743;52.160;20.910;2023-03-16T02:46:09;157.40;;;54.03;;
21170;SDS011;10743;52.160;20.910;2023-03-16T02:51:13;164.87;;;53.37;;
21170;SDS011;10743;52.160;20.910;2023-03-16T02:53:41;160.07;;;54.23;;
21170;SDS011;10743;52.160;20.910;2023-03-16T02:56:08;157.30;;;54.17;;
21170;SDS011;10743;52.160;20.910;2023-03-16T02:58:36;163.00;;;54.63;;
21170;SDS011;10743;52.160;20.910;2023-03-16T03:01:08;155.47;;;53.23;;
21170;SDS011;10743;52.160;20.910;2023-03-16T03:03:37;161.27;;;53.67;;
21170;SDS011;10743;52.160;20.910;2023-03-16T03:06:04;164.17;;;54.00;;
21170;SDS011;10743;52.160;20.910;2023-03-16T03:08:34;155.50;;;53.47;;
21170;SDS011;10743;52.160;20.910;2023-03-16T03:11:02;165.07;;;54.27;;
21170;SDS011;10743;52.160;20.910;2023-03-16T03:13:29;163.93;;;54.73;;
21170;SDS011;10743;52.160;20.910;2023-03-16T03:15:57;165.57;;;54.57;;
21170;SDS011;10743;52.160;20.910;2023-03-16T03:18:26;160.67;;;54.03;;
21170;SDS011;10743;52.160;20.910;2023-03-16T03:20:53;166.27;;;54.33;;
21170;SDS011;10743;52.160;20.910;2023-03-16T03:23:20;166.97;;;55.10;;
21170;SDS011;10743;52.160;20.910;2023-03-16T03:25:48;156.07;;;53.80;;
21170;SDS011;10743;52.160;20.910;2023-03-16T03:28:16;166.50;;;54.00;;
21170;SDS011;10743;52.160;20.910;2023-03-16T03:30:43;161.23;;;54.23;;
21170;SDS011;10743;52.160;20.910;2023-03-16T03:33:11;162.27;;;55.63;;
21170;SDS011;10743;52.160;20.910;2023-03-16T03:35:38;165.90;;;55.30;;
21170;SDS011;10743;52.160;20.910;2023-03-16T03:38:07;161.50;;;54.03;;
21170;SDS011;10743;52.160;20.910;2023-03-16T03:40:34;153.33;;;53.70;;
21170;SDS011;10743;52.160;20.910;2023-03-16T03:43:03;150.53;;;53.33;;
21170;SDS011;10743;52.160;20.910;2023-03-16T03:45:34;155.93;;;55.13;;
21170;SDS011;10743;52.160;20.910;2023-03-16T03:48:02;159.57;;;54.47;;
21170;SDS011;10743;52.160;20.910;2023-03-16T03:50:29;153.13;;;55.20;;
21170;SDS011;10743;52.160;20.910;2023-03-16T03:53:16;153.63;;;53.23;;
21170;SDS011;10743;52.160;20.910;2023-03-16T03:56:04;156.17;;;54.37;;
21170;SDS011;10743;52.160;20.910;2023-03-16T03:58:32;154.67;;;53.87;;
21170;SDS011;10743;52.160;20.910;2023-03-16T04:00:59;154.20;;;54.20;;
21170;SDS011;10743;52.160;20.910;2023-03-16T04:03:27;154.97;;;53.90;;
21170;SDS011;10743;52.160;20.910;2023-03-16T04:05:55;157.10;;;53.37;;
21170;SDS011;10743;52.160;20.910;2023-03-16T04:08:22;148.20;;;53.77;;
21170;SDS011;10743;52.160;20.910;2023-03-16T04:10:49;157.33;;;54.90;;
21170;SDS011;10743;52.160;20.910;2023-03-16T04:13:18;157.37;;;54.47;;
21170;SDS011;10743;52.160;20.910;2023-03-16T04:15:47;152.23;;;54.53;;
21170;SDS011;10743;52.160;20.910;2023-03-16T04:18:21;155.47;;;54.07;;
21170;SDS011;10743;52.160;20.910;2023-03-16T04:20:49;154.23;;;53.13;;
21170;SDS011;10743;52.160;20.910;2023-03-16T04:23:21;149.93;;;53.60;;
21170;SDS011;10743;52.160;20.910;2023-03-16T04:25:50;161.33;;;55.10;;
21170;SDS011;10743;52.160;20.910;2023-03-16T04:28:19;153.90;;;53.13;;
21170;SDS011;10743;52.160;20.910;2023-03-16T04:30:50;156.60;;;53.87;;
21170;SDS011;10743;52.160;20.910;2023-03-16T04:33:29;153.30;;;53.07;;
21170;SDS011;10743;52.160;20.910;2023-03-16T04:35:58;162.60;;;53.77;;
21170;SDS011;10743;52.160;20.910;2023-03-16T04:38:25;149.17;;;53.17;;
21170;SDS011;10743;52.160;20.910;2023-03-16T04:40:55;160.10;;;53.47;;
21170;SDS011;10743;52.160;20.910;2023-03-16T04:43:26;156.83;;;53.97;;
21170;SDS011;10743;52.160;20.910;2023-03-16T04:45:59;155.57;;;54.03;;
21170;SDS011;10743;52.160;20.910;2023-03-16T04:48:29;151.10;;;52.90;;
21170;SDS011;10743;52.160;20.910;2023-03-16T04:51:01;148.93;;;53.03;;
21170;SDS011;10743;52.160;20.910;2023-03-16T04:53:34;151.53;;;53.87;;
21170;SDS011;10743;52.160;20.910;2023-03-16T04:56:10;158.63;;;55.63;;
21170;SDS011;10743;52.160;20.910;2023-03-16T04:58:51;153.73;;;54.87;;
21170;SDS011;10743;52.160;20.910;2023-03-16T05:01:21;151.50;;;54.27;;
21170;SDS011;10743;52.160;20.910;2023-03-16T05:03:52;260.10;;;73.60;;
21170;SDS011;10743;52.160;20.910;2023-03-16T05:06:19;328.33;;;93.90;;
21170;SDS011;10743;52.160;20.910;2023-03-16T05:08:48;290.60;;;86.80;;
21170;SDS011;10743;52.160;20.910;2023-03-16T05:11:15;287.90;;;85.00;;
21170;SDS011;10743;52.160;20.910;2023-03-16T05:13:53;321.80;;;93.00;;
21170;SDS011;10743;52.160;20.910;2023-03-16T05:16:21;298.53;;;88.37;;
21170;SDS011;10743;52.160;20.910;2023-03-16T05:18:49;307.83;;;90.20;;
21170;SDS011;10743;52.160;20.910;2023-03-16T05:21:18;295.33;;;86.03;;
21170;SDS011;10743;52.160;20.910;2023-03-16T05:24:01;325.60;;;97.90;;
21170;SDS011;10743;52.160;20.910;2023-03-16T05:26:29;310.23;;;93.13;;
21170;SDS011;10743;52.160;20.910;2023-03-16T05:28:57;261.00;;;83.00;;
21170;SDS011;10743;52.160;20.910;2023-03-16T05:31:27;253.67;;;81.47;;
21170;SDS011;10743;52.160;20.910;2023-03-16T05:33:59;244.30;;;86.03;;
21170;SDS011;10743;52.160;20.910;2023-03-16T05:36:27;225.83;;;79.47;;
21170;SDS011;10743;52.160;20.910;2023-03-16T05:39:02;248.13;;;81.47;;
21170;SDS011;10743;52.160;20.910;2023-03-16T05:41:35;234.90;;;80.33;;
21170;SDS011;10743;52.160;20.910;2023-03-16T05:44:25;300.53;;;92.47;;
21170;SDS011;10743;52.160;20.910;2023-03-16T05:47:07;374.93;;;109.93;;
21170;SDS011;10743;52.160;20.910;2023-03-16T05:49:39;386.23;;;110.87;;
21170;SDS011;10743;52.160;20.910;2023-03-16T05:52:12;335.23;;;120.00;;
21170;SDS011;10743;52.160;20.910;2023-03-16T05:54:40;229.10;;;76.77;;
21170;SDS011;10743;52.160;20.910;2023-03-16T05:57:09;225.20;;;74.47;;
21170;SDS011;10743;52.160;20.910;2023-03-16T05:59:38;241.67;;;84.73;;
21170;SDS011;10743;52.160;20.910;2023-03-16T06:02:08;227.70;;;75.70;;
21170;SDS011;10743;52.160;20.910;2023-03-16T06:04:36;169.87;;;59.43;;
21170;SDS011;10743;52.160;20.910;2023-03-16T06:07:03;179.97;;;63.13;;
21170;SDS011;10743;52.160;20.910;2023-03-16T06:09:32;180.80;;;61.77;;
21170;SDS011;10743;52.160;20.910;2023-03-16T06:12:02;177.47;;;59.47;;
21170;SDS011;10743;52.160;20.910;2023-03-16T06:14:30;172.40;;;60.43;;
21170;SDS011;10743;52.160;20.910;2023-03-16T06:16:58;174.53;;;57.83;;
21170;SDS011;10743;52.160;20.910;2023-03-16T06:19:25;174.00;;;58.77;;
21170;SDS011;10743;52.160;20.910;2023-03-16T06:21:57;163.27;;;55.80;;
21170;SDS011;10743;52.160;20.910;2023-03-16T06:24:26;173.80;;;59.43;;
21170;SDS011;10743;52.160;20.910;2023-03-16T06:26:53;168.13;;;57.57;;
21170;SDS011;10743;52.160;20.910;2023-03-16T06:29:27;162.93;;;56.90;;
21170;SDS011;10743;52.160;20.910;2023-03-16T06:31:55;179.00;;;59.37;;
21170;SDS011;10743;52.160;20.910;2023-03-16T06:34:22;173.10;;;57.57;;
21170;SDS011;10743;52.160;20.910;2023-03-16T06:36:49;166.37;;;56.73;;
21170;SDS011;10743;52.160;20.910;2023-03-16T06:39:17;179.80;;;58.27;;
21170;SDS011;10743;52.160;20.910;2023-03-16T06:41:48;163.20;;;56.27;;
21170;SDS011;10743;52.160;20.910;2023-03-16T06:44:16;180.13;;;59.37;;
21170;SDS011;10743;52.160;20.910;2023-03-16T06:46:56;180.63;;;58.73;;
21170;SDS011;10743;52.160;20.910;2023-03-16T06:49:23;163.80;;;56.40;;
21170;SDS011;10743;52.160;20.910;2023-03-16T06:51:51;171.30;;;58.93;;
21170;SDS011;10743;52.160;20.910;2023-03-16T06:54:19;166.63;;;57.97;;
21170;SDS011;10743;52.160;20.910;2023-03-16T06:56:47;184.60;;;59.73;;
21170;SDS011;10743;52.160;20.910;2023-03-16T06:59:14;177.37;;;57.23;;
21170;SDS011;10743;52.160;20.910;2023-03-16T07:01:41;179.10;;;58.97;;
21170;SDS011;10743;52.160;20.910;2023-03-16T07:04:10;182.23;;;61.47;;
21170;SDS011;10743;52.160;20.910;2023-03-16T07:06:39;179.43;;;60.80;;
21170;SDS011;10743;52.160;20.910;2023-03-16T07:09:06;173.73;;;59.83;;
21170;SDS011;10743;52.160;20.910;2023-03-16T07:11:34;174.50;;;59.07;;
21170;SDS011;10743;52.160;20.910;2023-03-16T07:14:01;181.67;;;61.10;;
21170;SDS011;10743;52.160;20.910;2023-03-16T07:16:30;180.67;;;60.27;;
21170;SDS011;10743;52.160;20.910;2023-03-16T07:19:02;175.73;;;58.80;;
21170;SDS011;10743;52.160;20.910;2023-03-16T07:21:30;181.30;;;59.03;;
21170;SDS011;10743;52.160;20.910;2023-03-16T07:24:07;175.40;;;57.33;;
21170;SDS011;10743;52.160;20.910;2023-03-16T07:26:36;176.03;;;59.27;;
21170;SDS011;10743;52.160;20.910;2023-03-16T07:29:03;178.57;;;58.07;;
21170;SDS011;10743;52.160;20.910;2023-03-16T07:31:32;180.57;;;58.27;;
21170;SDS011;10743;52.160;20.910;2023-03-16T07:34:05;175.80;;;59.33;;
21170;SDS011;10743;52.160;20.910;2023-03-16T07:36:38;185.63;;;61.40;;
21170;SDS011;10743;52.160;20.910;2023-03-16T07:39:06;195.10;;;62.70;;
21170;SDS011;10743;52.160;20.910;2023-03-16T07:41:34;193.97;;;62.83;;
21170;SDS011;10743;52.160;20.910;2023-03-16T07:44:28;188.97;;;60.80;;
21170;SDS011;10743;52.160;20.910;2023-03-16T07:46:56;181.50;;;59.33;;
21170;SDS011;10743;52.160;20.910;2023-03-16T07:49:26;175.77;;;58.87;;
21170;SDS011;10743;52.160;20.910;2023-03-16T07:51:54;183.47;;;61.13;;
21170;SDS011;10743;52.160;20.910;2023-03-16T07:54:28;186.20;;;59.90;;
21170;SDS011;10743;52.160;20.910;2023-03-16T07:56:55;185.73;;;61.03;;
21170;SDS011;10743;52.160;20.910;2023-03-16T07:59:34;181.70;;;60.03;;
21170;SDS011;10743;52.160;20.910;2023-03-16T08:02:02;194.23;;;60.10;;
21170;SDS011;10743;52.160;20.910;2023-03-16T08:04:30;186.93;;;61.23;;
21170;SDS011;10743;52.160;20.910;2023-03-16T08:06:58;201.27;;;68.20;;
21170;SDS011;10743;52.160;20.910;2023-03-16T08:09:41;183.13;;;60.27;;
21170;SDS011;10743;52.160;20.910;2023-03-16T08:12:12;178.70;;;58.87;;
21170;SDS011;10743;52.160;20.910;2023-03-16T08:14:39;183.47;;;58.70;;
21170;SDS011;10743;52.160;20.910;2023-03-16T08:17:16;178.40;;;61.30;;
21170;SDS011;10743;52.160;20.910;2023-03-16T08:19:45;185.80;;;59.53;;
21170;SDS011;10743;52.160;20.910;2023-03-16T08:22:13;195.70;;;60.47;;
21170;SDS011;10743;52.160;20.910;2023-03-16T08:24:43;185.40;;;60.43;;
21170;SDS011;10743;52.160;20.910;2023-03-16T08:27:12;197.07;;;60.97;;
21170;SDS011;10743;52.160;20.910;2023-03-16T08:29:45;189.67;;;59.50;;
21170;SDS011;10743;52.160;20.910;2023-03-16T08:32:16;184.40;;;57.50;;
21170;SDS011;10743;52.160;20.910;2023-03-16T08:34:44;181.57;;;58.97;;
21170;SDS011;10743;52.160;20.910;2023-03-16T08:37:12;189.00;;;58.33;;
21170;SDS011;10743;52.160;20.910;2023-03-16T08:39:40;194.43;;;59.80;;
21170;SDS011;10743;52.160;20.910;2023-03-16T08:42:10;200.13;;;60.03;;
21170;SDS011;10743;52.160;20.910;2023-03-16T08:44:44;186.10;;;56.97;;
21170;SDS011;10743;52.160;20.910;2023-03-16T08:47:11;181.70;;;55.70;;
21170;SDS011;10743;52.160;20.910;2023-03-16T08:49:41;179.87;;;56.57;;
21170;SDS011;10743;52.160;20.910;2023-03-16T08:52:12;197.90;;;61.80;;
21170;SDS011;10743;52.160;20.910;2023-03-16T08:54:41;189.63;;;58.00;;
21170;SDS011;10743;52.160;20.910;2023-03-16T08:57:26;185.03;;;55.43;;
21170;SDS011;10743;52.160;20.910;2023-03-16T08:59:54;182.73;;;55.67;;
21170;SDS011;10743;52.160;20.910;2023-03-16T09:02:21;181.87;;;55.73;;
21170;SDS011;10743;52.160;20.910;2023-03-16T09:04:48;195.20;;;59.37;;
21170;SDS011;10743;52.160;20.910;2023-03-16T09:07:15;200.13;;;62.17;;
21170;SDS011;10743;52.160;20.910;2023-03-16T09:09:43;178.03;;;55.87;;
21170;SDS011;10743;52.160;20.910;2023-03-16T09:12:11;179.87;;;54.60;;
21170;SDS011;10743;52.160;20.910;2023-03-16T09:14:38;184.47;;;55.73;;
21170;SDS011;10743;52.160;20.910;2023-03-16T09:17:05;180.63;;;56.83;;
21170;SDS011;10743;52.160;20.910;2023-03-16T09:19:33;179.00;;;54.30;;
21170;SDS011;10743;52.160;20.910;2023-03-16T09:22:17;185.37;;;56.27;;
21170;SDS011;10743;52.160;20.910;2023-03-16T09:24:45;186.03;;;56.17;;
21170;SDS011;10743;52.160;20.910;2023-03-16T09:27:13;177.03;;;54.00;;
21170;SDS011;10743;52.160;20.910;2023-03-16T09:29:41;187.67;;;55.77;;
21170;SDS011;10743;52.160;20.910;2023-03-16T09:32:08;174.60;;;53.33;;
21170;SDS011;10743;52.160;20.910;2023-03-16T09:34:36;188.50;;;56.50;;
21170;SDS011;10743;52.160;20.910;2023-03-16T09:37:03;181.53;;;55.97;;
21170;SDS011;10743;52.160;20.910;2023-03-16T09:39:30;192.60;;;58.63;;
21170;SDS011;10743;52.160;20.910;2023-03-16T09:42:02;199.27;;;60.60;;
21170;SDS011;10743;52.160;20.910;2023-03-16T09:44:58;187.43;;;56.73;;
21170;SDS011;10743;52.160;20.910;2023-03-16T09:47:40;181.57;;;55.70;;
21170;SDS011;10743;52.160;20.910;2023-03-16T09:50:12;183.33;;;57.03;;
21170;SDS011;10743;52.160;20.910;2023-03-16T09:55:29;184.67;;;56.97;;
21170;SDS011;10743;52.160;20.910;2023-03-16T09:57:59;179.33;;;55.47;;
21170;SDS011;10743;52.160;20.910;2023-03-16T10:00:31;176.93;;;54.20;;
21170;SDS011;10743;52.160;20.910;2023-03-16T10:06:17;172.87;;;53.27;;
21170;SDS011;10743;52.160;20.910;2023-03-16T10:08:48;173.07;;;53.03;;
21170;SDS011;10743;52.160;20.910;2023-03-16T10:11:26;173.73;;;52.93;;
21170;SDS011;10743;52.160;20.910;2023-03-16T10:14:02;169.23;;;52.30;;
21170;SDS011;10743;52.160;20.910;2023-03-16T10:16:50;176.73;;;53.23;;
21170;SDS011;10743;52.160;20.910;2023-03-16T10:19:35;186.73;;;56.57;;
21170;SDS011;10743;52.160;20.910;2023-03-16T10:22:26;178.73;;;53.73;;
21170;SDS011;10743;52.160;20.910;2023-03-16T10:27:33;176.77;;;53.03;;
21170;SDS011;10743;52.160;20.910;2023-03-16T10:30:09;174.73;;;54.00;;
21170;SDS011;10743;52.160;20.910;2023-03-16T10:32:54;171.83;;;54.97;;
21170;SDS011;10743;52.160;20.910;2023-03-16T10:38:25;173.53;;;53.87;;
21170;SDS011;10743;52.160;20.910;2023-03-16T10:41:17;175.43;;;54.27;;
21170;SDS011;10743;52.160;20.910;2023-03-16T10:43:46;179.13;;;54.13;;
21170;SDS011;10743;52.160;20.910;2023-03-16T10:46:40;181.73;;;57.80;;
21170;SDS011;10743;52.160;20.910;2023-03-16T10:49:27;182.13;;;55.23;;
21170;SDS011;10743;52.160;20.910;2023-03-16T10:52:05;183.80;;;55.60;;
21170;SDS011;10743;52.160;20.910;2023-03-16T10:54:52;176.70;;;54.30;;
21170;SDS011;10743;52.160;20.910;2023-03-16T10:57:32;186.10;;;56.20;;
21170;SDS011;10743;52.160;20.910;2023-03-16T11:00:12;190.13;;;55.40;;
21170;SDS011;10743;52.160;20.910;2023-03-16T11:02:46;185.60;;;55.43;;
21170;SDS011;10743;52.160;20.910;2023-03-16T11:08:08;183.33;;;55.20;;
21170;SDS011;10743;52.160;20.910;2023-03-16T11:10:46;182.17;;;57.37;;
21170;SDS011;10743;52.160;20.910;2023-03-16T11:13:30;192.47;;;56.57;;
21170;SDS011;10743;52.160;20.910;2023-03-16T11:19:10;183.43;;;56.53;;
21170;SDS011;10743;52.160;20.910;2023-03-16T11:22:01;183.70;;;56.97;;
21170;SDS011;10743;52.160;20.910;2023-03-16T11:24:43;184.87;;;57.00;;
21170;SDS011;10743;52.160;20.910;2023-03-16T11:33:12;187.77;;;57.43;;
21170;SDS011;10743;52.160;20.910;2023-03-16T11:35:51;191.27;;;58.73;;
21170;SDS011;10743;52.160;20.910;2023-03-16T11:38:28;187.87;;;56.40;;
21170;SDS011;10743;52.160;20.910;2023-03-16T11:47:23;196.07;;;59.33;;
21170;SDS011;10743;52.160;20.910;2023-03-16T11:50:16;184.47;;;55.93;;
21170;SDS011;10743;52.160;20.910;2023-03-16T11:58:37;230.23;;;68.27;;
21170;SDS011;10743;52.160;20.910;2023-03-16T12:17:45;204.57;;;63.30;;
21170;SDS011;10743;52.160;20.910;2023-03-16T12:20:17;183.30;;;59.53;;
21170;SDS011;10743;52.160;20.910;2023-03-16T12:23:04;202.13;;;61.57;;
21170;SDS011;10743;52.160;20.910;2023-03-16T12:25:41;199.03;;;62.30;;
21170;SDS011;10743;52.160;20.910;2023-03-16T12:28:17;200.73;;;57.97;;
21170;SDS011;10743;52.160;20.910;2023-03-16T12:36:34;183.10;;;55.87;;
21170;SDS011;10743;52.160;20.910;2023-03-16T12:42:22;186.10;;;55.97;;
21170;SDS011;10743;52.160;20.910;2023-03-16T12:45:42;188.93;;;59.53;;
21170;SDS011;10743;52.160;20.910;2023-03-16T12:50:56;178.87;;;56.20;;
21170;SDS011;10743;52.160;20.910;2023-03-16T12:59:18;182.77;;;54.67;;
21170;SDS011;10743;52.160;20.910;2023-03-16T13:01:49;187.07;;;54.97;;
21170;SDS011;10743;52.160;20.910;2023-03-16T13:04:37;174.67;;;53.43;;
21170;SDS011;10743;52.160;20.910;2023-03-16T13:07:08;177.67;;;52.87;;
21170;SDS011;10743;52.160;20.910;2023-03-16T13:09:52;177.50;;;53.37;;
21170;SDS011;10743;52.160;20.910;2023-03-16T13:12:31;179.97;;;52.63;;
21170;SDS011;10743;52.160;20.910;2023-03-16T13:17:46;174.73;;;52.83;;
21170;SDS011;10743;52.160;20.910;2023-03-16T13:20:23;172.23;;;53.03;;
21170;SDS011;10743;52.160;20.910;2023-03-16T13:26:05;179.17;;;54.30;;
21170;SDS011;10743;52.160;20.910;2023-03-16T13:28:32;181.17;;;54.13;;
21170;SDS011;10743;52.160;20.910;2023-03-16T13:31:03;183.73;;;55.50;;
21170;SDS011;10743;52.160;20.910;2023-03-16T13:33:57;183.47;;;55.50;;
21170;SDS011;10743;52.160;20.910;2023-03-16T13:36:29;186.77;;;54.27;;
21170;SDS011;10743;52.160;20.910;2023-03-16T13:39:06;197.60;;;59.87;;
21170;SDS011;10743;52.160;20.910;2023-03-16T13:42:22;187.03;;;55.00;;
21170;SDS011;10743;52.160;20.910;2023-03-16T13:44:45;178.10;;;52.73;;
21170;SDS011;10743;52.160;20.910;2023-03-16T13:47:14;227.80;;;68.73;;
21170;SDS011;10743;52.160;20.910;2023-03-16T13:49:45;201.53;;;61.83;;
21170;SDS011;10743;52.160;20.910;2023-03-16T13:52:19;184.60;;;55.33;;
21170;SDS011;10743;52.160;20.910;2023-03-16T13:54:55;192.37;;;55.40;;
21170;SDS011;10743;52.160;20.910;2023-03-16T13:57:27;193.30;;;56.27;;
21170;SDS011;10743;52.160;20.910;2023-03-16T14:00:02;189.37;;;54.73;;
21170;SDS011;10743;52.160;20.910;2023-03-16T14:02:46;207.90;;;65.17;;
21170;SDS011;10743;52.160;20.910;2023-03-16T14:05:19;218.20;;;71.63;;
21170;SDS011;10743;52.160;20.910;2023-03-16T14:15:50;227.47;;;81.67;;
21170;SDS011;10743;52.160;20.910;2023-03-16T14:18:44;335.63;;;174.43;;
21170;SDS011;10743;52.160;20.910;2023-03-16T14:21:15;287.90;;;106.00;;
21170;SDS011;10743;52.160;20.910;2023-03-16T14:23:58;234.47;;;90.30;;
21170;SDS011;10743;52.160;20.910;2023-03-16T14:26:42;225.60;;;83.93;;
21170;SDS011;10743;52.160;20.910;2023-03-16T14:29:22;205.20;;;65.53;;
21170;SDS011;10743;52.160;20.910;2023-03-16T14:31:53;243.30;;;86.77;;
21170;SDS011;10743;52.160;20.910;2023-03-16T14:34:28;270.77;;;150.60;;
21170;SDS011;10743;52.160;20.910;2023-03-16T14:37:13;239.67;;;116.90;;
21170;SDS011;10743;52.160;20.910;2023-03-16T14:39:44;383.13;;;266.00;;
21170;SDS011;10743;52.160;20.910;2023-03-16T14:42:27;374.93;;;241.03;;
21170;SDS011;10743;52.160;20.910;2023-03-16T14:44:56;463.20;;;371.17;;
21170;SDS011;10743;52.160;20.910;2023-03-16T14:47:27;413.40;;;364.63;;
21170;SDS011;10743;52.160;20.910;2023-03-16T14:49:58;332.57;;;273.40;;
21170;SDS011;10743;52.160;20.910;2023-03-16T14:52:32;360.47;;;224.07;;
21170;SDS011;10743;52.160;20.910;2023-03-16T14:55:00;371.33;;;310.13;;
21170;SDS011;10743;52.160;20.910;2023-03-16T14:57:38;340.27;;;162.23;;
21170;SDS011;10743;52.160;20.910;2023-03-16T15:00:13;278.17;;;148.67;;
21170;SDS011;10743;52.160;20.910;2023-03-16T15:02:43;214.50;;;83.23;;
21170;SDS011;10743;52.160;20.910;2023-03-16T15:05:19;195.73;;;68.13;;
21170;SDS011;10743;52.160;20.910;2023-03-16T15:07:50;224.47;;;87.93;;
21170;SDS011;10743;52.160;20.910;2023-03-16T15:10:23;240.40;;;94.30;;
21170;SDS011;10743;52.160;20.910;2023-03-16T15:12:54;213.53;;;90.30;;
21170;SDS011;10743;52.160;20.910;2023-03-16T15:15:31;209.17;;;72.97;;
21170;SDS011;10743;52.160;20.910;2023-03-16T15:17:59;274.53;;;132.57;;
21170;SDS011;10743;52.160;20.910;2023-03-16T15:20:27;192.07;;;62.50;;
21170;SDS011;10743;52.160;20.910;2023-03-16T15:23:00;182.80;;;61.37;;
21170;SDS011;10743;52.160;20.910;2023-03-16T15:25:40;205.87;;;83.37;;
21170;SDS011;10743;52.160;20.910;2023-03-16T15:28:10;344.53;;;263.27;;
21170;SDS011;10743;52.160;20.910;2023-03-16T15:30:38;190.70;;;79.10;;
21170;SDS011;10743;52.160;20.910;2023-03-16T15:33:07;271.40;;;183.20;;
21170;SDS011;10743;52.160;20.910;2023-03-16T15:35:35;231.63;;;113.30;;
21170;SDS011;10743;52.160;20.910;2023-03-16T15:38:10;464.00;;;414.10;;
21170;SDS011;10743;52.160;20.910;2023-03-16T15:40:46;449.93;;;400.50;;
21170;SDS011;10743;52.160;20.910;2023-03-16T15:43:17;495.07;;;447.13;;
21170;SDS011;10743;52.160;20.910;2023-03-16T15:45:46;695.60;;;626.77;;
21170;SDS011;10743;52.160;20.910;2023-03-16T15:48:14;266.57;;;196.23;;
21170;SDS011;10743;52.160;20.910;2023-03-16T15:50:43;300.90;;;269.67;;
21170;SDS011;10743;52.160;20.910;2023-03-16T15:53:21;214.93;;;136.33;;
21170;SDS011;10743;52.160;20.910;2023-03-16T15:55:58;284.47;;;236.87;;
21170;SDS011;10743;52.160;20.910;2023-03-16T15:58:28;195.57;;;94.93;;
21170;SDS011;10743;52.160;20.910;2023-03-16T16:00:58;263.67;;;200.07;;
21170;SDS011;10743;52.160;20.910;2023-03-16T16:03:26;254.93;;;172.40;;
21170;SDS011;10743;52.160;20.910;2023-03-16T16:05:53;239.60;;;176.40;;
21170;SDS011;10743;52.160;20.910;2023-03-16T16:08:21;275.30;;;206.40;;